Time;durP1;ratioP1;P1;durP2;ratioP2;P2;SDS_P1;SDS_P2;PMS_P1;PMS_P2;Temp;Humidity;BMP_temperature;BMP_pressure;BME280_temperature;BME280_humidity;BME280_pressure;Samples;Min_cycle;Max_cycle;Signal;HPM_P1;HPM_P2
2022/11/19 00:02:02;;;;;;;0.75;0.75;;;;;;;5.02;85.18;98125.69;4439949;32;35182;-71
2022/11/19 00:04:30;;;;;;;1.42;1.33;;;;;;;5.01;84.33;98137.72;4439918;32;34346;-71
2022/11/19 00:06:59;;;;;;;1.87;1.77;;;;;;;5.08;84.49;98144.56;4440018;32;33510;-71
2022/11/19 00:09:27;;;;;;;1.15;0.95;;;;;;;4.51;87.19;98136.34;4439908;32;33909;-71
2022/11/19 00:14:42;;;;;;;1.15;1.15;;;;;;;4.60;86.13;98151.75;4439924;32;34446;-70
2022/11/19 00:17:10;;;;;;;2.10;1.95;;;;;;;4.71;85.06;98162.88;4439943;32;33593;-71
2022/11/19 00:19:38;;;;;;;1.55;1.25;;;;;;;4.92;84.47;98159.28;4439881;32;33958;-70
2022/11/19 00:22:06;;;;;;;0.90;0.90;;;;;;;4.69;85.12;98167.16;4439760;32;35216;-71
2022/11/19 00:24:34;;;;;;;0.70;0.70;;;;;;;4.74;85.10;98168.00;4439102;32;34446;-71
2022/11/19 00:27:02;;;;;;;7.10;3.00;;;;;;;4.61;85.34;98168.09;4439632;32;33577;-71
2022/11/19 00:29:30;;;;;;;1.30;1.20;;;;;;;4.53;85.46;98179.28;4439814;32;34159;-71
2022/11/19 00:31:59;;;;;;;0.75;0.75;;;;;;;5.00;83.88;98186.75;4439726;32;35109;-70
2022/11/19 00:34:27;;;;;;;0.80;0.80;;;;;;;4.92;82.98;98179.94;4439743;32;35287;-70
2022/11/19 00:36:55;;;;;;;0.73;0.73;;;;;;;4.72;84.87;98174.88;4439684;32;33349;-71
2022/11/19 00:39:23;;;;;;;1.70;1.60;;;;;;;4.07;87.17;98170.91;4439955;32;33803;-71
2022/11/19 00:41:51;;;;;;;1.92;1.83;;;;;;;4.52;85.31;98172.44;4439682;32;35797;-70
2022/11/19 00:44:19;;;;;;;5.87;1.50;;;;;;;4.56;84.83;98175.84;4439694;32;35175;-71
2022/11/19 00:46:47;;;;;;;5.47;1.58;;;;;;;4.70;83.91;98180.94;4439724;32;33541;-71
2022/11/19 00:49:15;;;;;;;1.75;1.65;;;;;;;4.60;83.29;98184.41;4439633;32;34826;-70
2022/11/19 00:51:43;;;;;;;1.87;1.77;;;;;;;4.65;83.41;98183.53;4439745;32;35216;-71
2022/11/19 00:54:12;;;;;;;0.70;0.70;;;;;;;4.40;84.06;98180.22;4439591;32;35102;-71
2022/11/19 00:56:40;;;;;;;1.17;1.17;;;;;;;4.40;84.15;98192.25;4439641;32;33609;-71
2022/11/19 00:59:08;;;;;;;2.80;2.37;;;;;;;4.52;83.17;98200.78;4438576;32;33802;-71
2022/11/19 01:01:37;;;;;;;1.08;1.08;;;;;;;4.57;82.56;98208.50;4439598;32;35085;-71
2022/11/19 01:04:05;;;;;;;0.68;0.68;;;;;;;4.34;82.79;98212.03;4439578;32;35266;-71
2022/11/19 01:06:33;;;;;;;1.08;1.08;;;;;;;4.27;83.07;98223.25;4439510;32;34346;-70
2022/11/19 01:09:02;;;;;;;0.90;0.90;;;;;;;4.39;82.86;98235.19;4439535;32;34219;-71
2022/11/19 01:11:33;;;;;;;0.70;0.70;;;;;;;4.25;83.11;98252.44;4439414;32;35880;-70
2022/11/19 01:14:02;;;;;;;2.55;2.35;;;;;;;4.04;82.88;98243.03;4439564;32;33685;-70
2022/11/19 01:16:38;;;;;;;1.80;1.48;;;;;;;4.10;82.20;98243.88;4439506;32;33580;-71
2022/11/19 01:19:08;;;;;;;1.02;1.02;;;;;;;3.93;83.32;98261.94;4438454;32;34020;-71
2022/11/19 01:21:37;;;;;;;1.85;1.75;;;;;;;4.10;82.32;98266.22;4438253;32;34360;-71
2022/11/19 01:24:05;;;;;;;1.95;1.85;;;;;;;3.90;81.95;98264.53;4438325;32;35084;-71
2022/11/19 01:26:33;;;;;;;1.27;1.25;;;;;;;4.20;81.37;98279.94;4439472;32;34203;-71
2022/11/19 01:29:02;;;;;;;0.88;0.88;;;;;;;4.13;81.08;98287.69;4439278;32;34756;-71
2022/11/19 01:31:30;;;;;;;1.92;1.83;;;;;;;4.15;80.98;98288.53;4439303;32;35694;-70
2022/11/19 01:33:58;;;;;;;2.35;2.25;;;;;;;4.23;80.03;98285.06;4438158;32;35263;-70
2022/11/19 01:36:29;;;;;;;1.73;1.62;;;;;;;3.59;82.16;98280.00;4439217;32;33382;-71
2022/11/19 01:38:57;;;;;;;1.92;1.83;;;;;;;3.90;80.42;98281.69;4438307;32;33897;-71
2022/11/19 01:41:30;;;;;;;1.62;1.52;;;;;;;3.88;80.43;98275.69;4438125;32;34982;-71
2022/11/19 01:44:02;;;;;;;6.32;4.55;;;;;;;3.97;80.84;98281.69;4439280;32;34456;-71
2022/11/19 01:46:32;;;;;;;1.42;1.35;;;;;;;3.98;79.83;98279.97;4439316;32;33536;-70
2022/11/19 01:49:08;;;;;;;2.55;2.35;;;;;;;3.50;81.29;98290.28;4439332;32;33780;-71
2022/11/19 01:51:55;;;;;;;1.65;1.55;;;;;;;3.54;82.45;98297.16;4439143;32;35005;-71
2022/11/19 01:54:36;;;;;;;4.62;1.98;;;;;;;3.28;83.32;98301.41;4439326;32;34601;-71
2022/11/19 01:57:10;;;;;;;2.28;2.15;;;;;;;3.67;81.46;98308.34;4437990;32;34373;-71
2022/11/19 01:59:40;;;;;;;6.53;2.28;;;;;;;3.36;83.07;98307.44;4438104;32;33869;-71
2022/11/19 02:02:08;;;;;;;1.17;1.17;;;;;;;3.31;83.35;98310.00;4439177;32;35077;-71
2022/11/19 02:04:38;;;;;;;1.62;1.55;;;;;;;3.39;82.60;98321.16;4437950;32;34444;-71
2022/11/19 02:07:06;;;;;;;4.35;3.15;;;;;;;2.81;85.77;98339.84;4439017;32;34204;-71
2022/11/19 02:09:34;;;;;;;1.00;1.00;;;;;;;3.18;83.95;98341.72;4437952;32;34054;-70
2022/11/19 02:12:18;;;;;;;3.30;3.10;;;;;;;2.87;85.59;98340.75;4437772;32;35918;-71
2022/11/19 02:14:55;;;;;;;1.42;0.80;;;;;;;3.30;84.77;98341.75;4439313;32;34445;-71
2022/11/19 02:18:01;;;;;;;0.80;0.80;;;;;;;3.01;85.75;98355.34;4439123;32;33523;-71
2022/11/19 02:20:47;;;;;;;2.62;2.42;;;;;;;3.67;81.44;98340.91;4439367;32;33961;-71
2022/11/19 02:23:49;;;;;;;1.73;1.62;;;;;;;3.39;82.21;98336.59;4438928;32;34595;-71
2022/11/19 02:26:26;;;;;;;1.27;1.20;;;;;;;3.14;82.85;98338.28;4422890;32;34494;-70
2022/11/19 02:29:22;;;;;;;2.03;1.77;;;;;;;3.48;81.04;98340.06;4439037;32;34203;-71
2022/11/19 02:31:50;;;;;;;2.85;1.55;;;;;;;3.56;79.02;98359.78;4438792;32;34662;-71
2022/11/19 02:34:37;;;;;;;2.08;1.85;;;;;;;3.58;79.18;98373.53;4438742;32;35979;-71
2022/11/19 02:37:13;;;;;;;0.80;0.80;;;;;;;3.10;81.49;98385.37;4437641;32;34669;-70
2022/11/19 02:39:53;;;;;;;6.15;1.98;;;;;;;2.99;81.79;98394.78;4437788;32;33665;-71
2022/11/19 02:42:34;;;;;;;1.85;1.75;;;;;;;3.54;78.75;98401.81;4438714;32;33903;-71
2022/11/19 02:45:10;;;;;;;3.85;1.85;;;;;;;3.48;78.77;98404.41;4437617;32;34910;-70
2022/11/19 02:48:14;;;;;;;2.03;1.48;;;;;;;3.60;77.74;98415.56;4438110;32;35108;-70
2022/11/19 02:50:48;;;;;;;1.83;1.73;;;;;;;3.16;79.04;98411.16;4433881;32;32909;-71
2022/11/19 02:53:16;;;;;;;1.98;1.87;;;;;;;3.35;78.77;98404.38;4439339;32;32122;-71
2022/11/19 02:56:09;;;;;;;5.55;2.55;;;;;;;2.58;82.29;98408.28;4440403;32;36017;-71
2022/11/19 03:04:31;;;;;;;2.05;1.92;;;;;;;2.71;82.04;98427.22;4440690;32;34759;-71
2022/11/19 03:07:14;;;;;;;3.37;2.17;;;;;;;2.27;84.43;98426.06;4439482;32;34995;-70
2022/11/19 03:09:53;;;;;;;5.05;2.42;;;;;;;2.46;84.40;98435.59;4439233;32;34566;-71
2022/11/19 03:12:26;;;;;;;1.23;1.23;;;;;;;2.74;83.81;98432.38;4440325;32;34222;-71
2022/11/19 03:17:58;;;;;;;1.42;1.37;;;;;;;2.59;86.11;98454.53;4440312;32;34615;-71
2022/11/19 03:20:34;;;;;;;1.73;1.62;;;;;;;3.07;84.23;98454.84;4440334;32;34454;-71
2022/11/19 03:23:22;;;;;;;2.03;1.92;;;;;;;3.21;82.45;98444.59;4439149;32;34441;-70
2022/11/19 03:26:04;;;;;;;3.47;1.90;;;;;;;3.56;79.86;98431.84;4439198;32;33826;-71
2022/11/19 03:28:35;;;;;;;2.62;2.33;;;;;;;3.45;79.89;98454.13;4439023;32;35117;-70
2022/11/19 03:31:04;;;;;;;3.40;3.10;;;;;;;3.01;81.80;98462.50;4440157;32;33703;-70
2022/11/19 03:33:36;;;;;;;1.92;1.70;;;;;;;3.53;79.45;98449.88;4440174;32;34444;-70
2022/11/19 03:36:09;;;;;;;2.62;2.33;;;;;;;3.23;79.72;98448.06;4439061;32;34048;-71
2022/11/19 03:38:41;;;;;;;1.30;1.27;;;;;;;2.55;83.03;98452.81;4439060;32;35858;-70
2022/11/19 03:41:10;;;;;;;1.67;1.58;;;;;;;2.99;82.69;98461.66;4439264;32;34575;-70
2022/11/19 03:43:40;;;;;;;7.57;3.62;;;;;;;2.58;84.32;98468.25;4438994;32;34346;-70
2022/11/19 03:46:12;;;;;;;4.50;4.10;;;;;;;3.23;80.67;98466.91;4440205;32;33802;-70
2022/11/19 03:48:44;;;;;;;3.28;3.03;;;;;;;2.30;85.01;98472.31;4439009;32;34819;-70
2022/11/19 03:51:25;;;;;;;2.72;2.53;;;;;;;2.73;82.77;98477.75;4439196;32;34461;-70
2022/11/19 03:53:53;;;;;;;2.35;2.15;;;;;;;2.67;82.73;98488.03;4439046;32;33594;-70
2022/11/19 03:56:23;;;;;;;1.70;1.62;;;;;;;2.60;83.88;98487.09;4439926;32;34817;-70
2022/11/19 03:58:52;;;;;;;3.12;2.92;;;;;;;3.10;81.33;98493.41;4438012;32;35071;-70
2022/11/19 04:01:21;;;;;;;2.25;2.05;;;;;;;3.26;79.42;98488.38;4439984;32;34425;-70
2022/11/19 04:06:36;;;;;;;2.17;1.90;;;;;;;2.37;82.49;98488.66;4440086;32;34701;-70
2022/11/19 04:09:04;;;;;;;0.95;0.95;;;;;;;2.91;82.38;98500.19;4439916;32;35007;-70
2022/11/19 04:11:32;;;;;;;0.95;0.95;;;;;;;3.57;76.45;98502.22;4440130;32;34592;-70
2022/11/19 04:14:00;;;;;;;1.17;1.17;;;;;;;3.64;75.41;98514.25;4439943;32;33613;-70
2022/11/19 04:16:29;;;;;;;0.80;0.80;;;;;;;2.90;77.79;98520.75;4439868;32;34015;-70
2022/11/19 04:18:57;;;;;;;1.20;1.15;;;;;;;2.78;77.57;98532.66;4438602;32;35090;-71
2022/11/19 04:21:25;;;;;;;1.35;1.33;;;;;;;3.23;76.79;98528.66;4439739;32;35270;-70
2022/11/19 04:23:53;;;;;;;0.80;0.80;;;;;;;3.44;75.37;98532.19;4439838;32;33691;-70
2022/11/19 04:26:21;;;;;;;1.30;1.08;;;;;;;3.28;75.02;98538.97;4439949;32;33929;-70
2022/11/19 04:28:49;;;;;;;0.62;0.62;;;;;;;2.54;78.14;98558.16;4439605;32;35885;-70
2022/11/19 04:31:17;;;;;;;1.58;1.50;;;;;;;2.95;77.01;98561.06;4439737;32;34509;-71
2022/11/19 04:33:45;;;;;;;1.67;1.58;;;;;;;2.97;77.12;98555.94;4439772;32;34206;-70
2022/11/19 04:36:13;;;;;;;3.05;2.87;;;;;;;1.84;81.50;98559.19;4439726;32;33985;-70
2022/11/19 04:38:42;;;;;;;3.45;1.98;;;;;;;2.00;82.74;98565.34;4439845;32;35035;-70
2022/11/19 04:41:10;;;;;;;1.50;1.40;;;;;;;2.05;82.36;98574.81;4439726;32;35329;-71
2022/11/19 04:43:38;;;;;;;2.33;2.17;;;;;;;1.55;84.81;98579.34;4439716;32;33457;-70
2022/11/19 04:46:06;;;;;;;5.57;5.18;;;;;;;1.61;85.54;98587.97;4439693;32;34596;-70
2022/11/19 04:48:34;;;;;;;2.42;2.25;;;;;;;1.45;87.54;98592.06;4438420;32;34924;-71
2022/11/19 04:51:02;;;;;;;3.60;3.28;;;;;;;1.76;85.15;98594.16;4440004;32;34312;-71
2022/11/19 04:53:30;;;;;;;1.58;1.52;;;;;;;2.45;82.14;98600.94;4439813;32;33654;-70
2022/11/19 04:55:59;;;;;;;0.77;0.77;;;;;;;2.04;82.88;98608.19;4439642;32;33761;-71
2022/11/19 04:58:27;;;;;;;1.10;0.80;;;;;;;2.30;81.46;98616.16;4439582;32;35733;-70
2022/11/19 05:00:55;;;;;;;0.88;0.88;;;;;;;2.35;80.73;98617.09;4439550;32;34485;-71
2022/11/19 05:03:23;;;;;;;1.20;1.17;;;;;;;1.92;83.53;98634.56;4439590;32;33467;-70
2022/11/19 05:05:51;;;;;;;1.25;1.25;;;;;;;1.85;83.89;98630.19;4439668;32;33887;-70
2022/11/19 05:08:20;;;;;;;0.60;0.60;;;;;;;2.52;81.43;98631.81;4439496;32;36057;-70
2022/11/19 05:10:48;;;;;;;1.42;1.40;;;;;;;2.44;80.80;98630.03;4439094;32;34452;-71
2022/11/19 05:13:16;;;;;;;2.15;1.27;;;;;;;2.14;81.94;98625.41;4439478;32;33630;-71
2022/11/19 05:15:44;;;;;;;1.98;1.87;;;;;;;2.60;79.84;98636.19;4439447;32;34740;-71
2022/11/19 05:18:13;;;;;;;2.05;1.62;;;;;;;1.99;83.14;98645.78;4439555;32;35137;-71
2022/11/19 05:20:41;;;;;;;2.20;1.50;;;;;;;2.14;82.73;98645.13;4438232;32;35063;-71
2022/11/19 05:23:09;;;;;;;2.83;2.55;;;;;;;3.07;78.91;98642.59;4439442;32;33561;-71
2022/11/19 05:25:37;;;;;;;1.05;1.05;;;;;;;2.13;81.89;98648.50;4438383;32;34047;-71
2022/11/19 05:28:05;;;;;;;1.75;1.65;;;;;;;1.69;85.33;98658.25;4439225;32;35182;-71
2022/11/19 05:30:34;;;;;;;0.70;0.70;;;;;;;1.75;85.34;98652.31;4439355;32;35158;-70
2022/11/19 05:33:02;;;;;;;1.23;1.23;;;;;;;1.30;88.46;98648.25;4439410;32;33020;-70
2022/11/19 05:35:30;;;;;;;0.80;0.80;;;;;;;1.61;86.69;98649.56;4439393;32;34748;-70
2022/11/19 05:37:58;;;;;;;2.15;1.60;;;;;;;1.91;85.74;98655.97;4439332;32;35195;-71
2022/11/19 05:40:27;;;;;;;5.60;3.70;;;;;;;2.25;84.73;98664.91;4439259;32;34606;-71
2022/11/19 05:42:55;;;;;;;2.17;2.05;;;;;;;1.82;85.34;98664.41;4439578;32;33425;-71
2022/11/19 05:45:23;;;;;;;3.70;3.35;;;;;;;1.62;84.59;98676.94;4439342;32;34691;-70
2022/11/19 05:47:54;;;;;;;1.33;1.25;;;;;;;0.93;87.58;98681.84;4439277;32;35068;-70
2022/11/19 05:50:23;;;;;;;1.77;1.52;;;;;;;1.75;84.53;98682.25;4439322;32;34355;-70
2022/11/19 05:52:51;;;;;;;1.23;1.23;;;;;;;1.15;87.12;98692.47;4439210;32;33433;-70
2022/11/19 05:55:19;;;;;;;0.95;0.95;;;;;;;0.91;88.51;98691.22;4439174;32;33821;-70
2022/11/19 05:57:47;;;;;;;1.80;1.70;;;;;;;0.87;89.75;98692.00;4439218;32;35041;-71
2022/11/19 06:00:19;;;;;;;2.30;2.20;;;;;;;1.69;85.53;98695.84;4439168;32;35350;-70
2022/11/19 06:02:47;;;;;;;1.55;1.35;;;;;;;1.84;83.73;98702.94;4439194;32;33690;-71
2022/11/19 06:05:15;;;;;;;1.62;1.58;;;;;;;2.71;79.23;98704.81;4439105;32;33787;-70
2022/11/19 06:07:43;;;;;;;1.42;1.42;;;;;;;1.67;83.58;98718.94;4439098;32;34916;-70
2022/11/19 06:10:11;;;;;;;1.98;1.87;;;;;;;1.77;83.46;98721.66;4439036;32;35410;-70
2022/11/19 06:12:42;;;;;;;0.80;0.80;;;;;;;1.40;85.17;98727.06;4439041;32;33461;-70
2022/11/19 06:15:13;;;;;;;0.98;0.98;;;;;;;1.60;85.40;98735.06;4439253;32;33995;-70
2022/11/19 06:17:41;;;;;;;1.52;1.42;;;;;;;2.20;82.62;98742.78;4438946;32;35191;-70
2022/11/19 06:20:10;;;;;;;0.62;0.62;;;;;;;1.56;86.12;98748.72;4439019;32;34436;-70
2022/11/19 06:22:38;;;;;;;0.80;0.80;;;;;;;2.01;83.60;98745.09;4437949;32;33490;-70
2022/11/19 06:25:07;;;;;;;0.75;0.75;;;;;;;1.60;86.28;98742.78;4443026;32;34007;-69
2022/11/19 06:27:35;;;;;;;0.95;0.93;;;;;;;0.89;89.87;98744.16;4453962;32;35155;-69
2022/11/19 06:30:05;;;;;;;2.33;2.12;;;;;;;1.03;90.57;98753.81;4454324;32;34582;-70
2022/11/19 06:32:33;;;;;;;1.27;1.17;;;;;;;1.67;87.64;98747.16;4454162;32;34206;-70
2022/11/19 06:35:01;;;;;;;1.00;1.00;;;;;;;2.00;85.36;98760.50;4454224;32;33875;-70
2022/11/19 06:37:30;;;;;;;1.90;1.80;;;;;;;1.92;86.46;98760.34;4454104;32;34596;-71
2022/11/19 06:39:58;;;;;;;1.12;1.12;;;;;;;1.47;89.48;98764.81;4454178;32;34357;-70
2022/11/19 06:42:35;;;;;;;0.75;0.75;;;;;;;1.47;88.64;98774.22;4454289;32;34302;-69
2022/11/19 06:45:06;;;;;;;1.98;1.87;;;;;;;1.75;90.86;98774.63;4453788;32;33860;-71
2022/11/19 06:47:34;;;;;;;1.58;1.48;;;;;;;2.11;89.11;98768.34;4454229;32;34249;-71
2022/11/19 06:50:03;;;;;;;1.08;1.08;;;;;;;2.63;87.68;98769.88;4452838;32;35236;-71
2022/11/19 06:52:31;;;;;;;1.50;1.40;;;;;;;2.76;85.59;98773.44;4454134;32;33549;-70
2022/11/19 06:54:59;;;;;;;1.35;1.27;;;;;;;2.81;83.90;98761.50;4454059;32;33813;-71
2022/11/19 06:57:27;;;;;;;2.80;2.35;;;;;;;3.66;81.14;98751.13;4453916;32;35170;-71
2022/11/19 06:59:56;;;;;;;1.90;1.80;;;;;;;3.44;79.78;98750.94;4453904;32;34455;-71
2022/11/19 07:02:24;;;;;;;2.97;2.17;;;;;;;3.97;77.94;98760.78;4453894;32;34146;-71
2022/11/19 07:04:52;;;;;;;0.90;0.90;;;;;;;4.27;75.89;98760.94;4454163;32;34327;-71
2022/11/19 07:07:20;;;;;;;2.78;2.55;;;;;;;4.04;77.85;98773.69;4453697;32;34992;-70
2022/11/19 07:09:48;;;;;;;2.03;1.83;;;;;;;3.97;76.07;98783.97;4453770;32;34368;-70
2022/11/19 07:12:16;;;;;;;1.85;1.75;;;;;;;4.01;75.55;98796.84;4453775;32;33445;-71
2022/11/19 07:14:44;;;;;;;0.88;0.88;;;;;;;3.48;78.12;98796.47;4453559;32;33936;-71
2022/11/19 07:17:14;;;;;;;3.08;2.22;;;;;;;2.92;82.11;98791.63;4451340;32;35146;-69
2022/11/19 07:19:44;;;;;;;3.75;3.08;;;;;;;3.26;79.28;98800.53;4453631;32;35188;-70
2022/11/19 07:22:13;;;;;;;4.37;1.58;;;;;;;2.51;81.76;98805.69;4453532;32;33535;-70
2022/11/19 07:24:41;;;;;;;0.98;0.98;;;;;;;2.80;80.15;98788.03;4453917;32;33747;-70
2022/11/19 07:30:26;;;;;;;1.00;0.95;;;;;;;2.51;83.69;98799.72;4297636;33;34557;-74
2022/11/19 07:32:55;;;;;;;10.55;5.75;;;;;;;2.11;84.05;98794.03;4303072;33;33414;-73
2022/11/19 07:35:24;;;;;;;0.73;0.73;;;;;;;2.52;83.59;98806.56;4304836;33;32779;-74
2022/11/19 07:37:52;;;;;;;1.85;1.33;;;;;;;2.49;84.82;98806.50;4304916;33;35805;-74
2022/11/19 07:40:21;;;;;;;2.30;1.83;;;;;;;2.99;81.73;98795.97;4304369;33;34494;-72
2022/11/19 07:42:52;;;;;;;1.40;1.30;;;;;;;2.56;83.05;98793.78;4304425;33;33802;-72
2022/11/19 07:45:21;;;;;;;0.77;0.77;;;;;;;3.46;81.32;98793.03;4305619;33;34142;-72
2022/11/19 07:47:49;;;;;;;3.17;1.70;;;;;;;3.32;79.57;98787.75;4305129;33;34955;-72
2022/11/19 07:50:17;;;;;;;1.55;1.45;;;;;;;4.15;77.35;98797.81;4305368;33;32946;-72
2022/11/19 07:52:45;;;;;;;0.80;0.80;;;;;;;4.00;76.63;98793.41;4305460;33;33396;-72
2022/11/19 07:55:14;;;;;;;1.02;1.02;;;;;;;4.06;75.68;98792.59;4305383;33;33893;-72
2022/11/19 07:57:42;;;;;;;2.35;2.20;;;;;;;4.70;72.60;98798.09;4305358;33;36028;-72
2022/11/19 08:00:11;;;;;;;0.77;0.77;;;;;;;4.25;73.73;98799.59;4305482;33;35193;-72
2022/11/19 08:02:39;;;;;;;1.77;1.70;;;;;;;3.46;77.27;98785.28;4305490;33;34161;-72
2022/11/19 08:05:08;;;;;;;2.33;2.22;;;;;;;2.81;81.60;98789.78;4305379;33;34032;-72
2022/11/19 08:07:36;;;;;;;2.75;2.55;;;;;;;3.70;79.97;98796.63;4305349;33;36129;-73
2022/11/19 08:10:05;;;;;;;1.23;1.23;;;;;;;3.63;80.04;98788.00;4304248;33;34560;-72
2022/11/19 08:12:34;;;;;;;2.25;1.42;;;;;;;3.98;78.49;98782.25;4305421;33;33438;-72
2022/11/19 08:15:02;;;;;;;4.87;2.42;;;;;;;4.03;79.21;98792.59;4305292;33;33510;-73
2022/11/19 08:20:17;;;;;;;0.55;0.55;;;;;;;3.98;74.64;98806.28;4305329;33;34599;-72
2022/11/19 08:22:45;;;;;;;0.98;0.98;;;;;;;3.57;76.64;98819.69;4305320;33;34225;-72
2022/11/19 08:25:13;;;;;;;2.97;1.75;;;;;;;4.52;74.21;98828.97;4305130;33;34027;-72
2022/11/19 08:27:41;;;;;;;0.95;0.95;;;;;;;4.96;73.39;98819.69;4305254;33;35114;-73
2022/11/19 08:30:10;;;;;;;2.28;2.12;;;;;;;4.59;74.80;98819.53;4304972;33;35483;-73
2022/11/19 08:32:38;;;;;;;1.37;1.30;;;;;;;4.59;77.05;98828.16;4305249;33;34682;-72
2022/11/19 08:35:06;;;;;;;3.03;2.05;;;;;;;5.08;74.17;98843.84;4305130;33;33847;-73
2022/11/19 08:37:34;;;;;;;8.80;3.37;;;;;;;5.68;70.37;98843.06;4305347;33;35059;-72
2022/11/19 08:40:03;;;;;;;0.90;0.90;;;;;;;6.32;69.18;98838.78;4305181;33;35385;-72
2022/11/19 08:45:18;;;;;;;3.25;3.05;;;;;;;7.70;63.72;98837.31;4304652;33;33858;-73
2022/11/19 08:47:48;;;;;;;0.98;0.95;;;;;;;7.34;63.87;98844.44;4305125;33;35863;-72
2022/11/19 08:50:16;;;;;;;7.50;2.03;;;;;;;7.27;63.74;98845.34;4305337;33;34490;-72
2022/11/19 08:52:44;;;;;;;2.15;2.05;;;;;;;7.21;67.16;98825.53;4305227;33;34149;-72
2022/11/19 08:55:12;;;;;;;2.17;2.05;;;;;;;8.08;64.14;98821.44;4303393;33;34224;-73
2022/11/19 08:57:40;;;;;;;3.25;3.05;;;;;;;7.72;65.46;98836.41;4305108;33;35124;-73
2022/11/19 09:00:09;;;;;;;1.08;1.08;;;;;;;7.49;64.66;98872.00;4305042;33;34579;-73
2022/11/19 09:02:37;;;;;;;6.68;2.17;;;;;;;7.71;64.76;98894.31;4304921;33;33496;-73
2022/11/19 09:05:06;;;;;;;2.30;1.83;;;;;;;8.37;59.76;98892.94;4304993;33;34079;-73
2022/11/19 09:07:41;;;;;;;1.47;1.40;;;;;;;8.53;61.59;98904.94;4292778;33;34912;-72
2022/11/19 09:10:09;;;;;;;1.83;1.67;;;;;;;8.62;62.12;98905.72;4305023;33;34387;-73
2022/11/19 09:12:37;;;;;;;3.55;3.20;;;;;;;9.01;58.90;98906.16;4304990;33;33564;-73
2022/11/19 09:15:07;;;;;;;1.95;1.85;;;;;;;8.66;58.91;98920.38;4304854;33;34362;-76
2022/11/19 09:17:35;;;;;;;1.40;1.30;;;;;;;8.15;60.77;98913.88;4305008;33;34951;-74
2022/11/19 09:20:04;;;;;;;3.90;2.67;;;;;;;8.35;60.79;98918.91;4304855;33;35145;-73
2022/11/19 09:22:32;;;;;;;2.65;2.45;;;;;;;7.60;62.58;98924.59;4304907;33;34573;-73
2022/11/19 09:25:01;;;;;;;0.80;0.80;;;;;;;7.25;62.16;98925.63;4305007;33;34015;-73
2022/11/19 09:27:29;;;;;;;3.47;3.20;;;;;;;7.59;63.51;98922.91;4304840;33;34958;-72
2022/11/19 09:29:57;;;;;;;1.95;1.85;;;;;;;7.77;60.52;98917.59;4303561;33;35475;-72
2022/11/19 09:32:27;;;;;;;2.37;1.25;;;;;;;7.71;59.60;98925.41;4304875;33;33553;-72
2022/11/19 09:34:55;;;;;;;0.93;0.93;;;;;;;6.40;65.90;98923.22;4291876;33;33913;-73
2022/11/19 09:37:23;;;;;;;1.95;1.77;;;;;;;6.76;66.43;98912.84;4304904;33;34791;-73
2022/11/19 09:39:51;;;;;;;1.37;1.30;;;;;;;6.67;65.71;98925.78;4304699;33;34612;-75
2022/11/19 09:42:40;;;;;;;2.53;2.05;;;;;;;6.83;66.37;98927.50;4304823;33;33537;-72
2022/11/19 09:45:19;;;;;;;0.73;0.73;;;;;;;6.77;65.75;98932.69;4304868;33;33967;-73
2022/11/19 09:48:05;;;;;;;1.77;1.67;;;;;;;6.87;64.63;98942.16;4303728;33;35024;-73
2022/11/19 09:50:45;;;;;;;1.25;1.25;;;;;;;6.95;64.18;98950.78;4304716;33;34619;-72
2022/11/19 09:53:21;;;;;;;4.40;3.40;;;;;;;7.16;63.61;98951.56;4304789;33;33636;-72
2022/11/19 09:55:52;;;;;;;2.15;2.05;;;;;;;7.62;65.83;98946.19;4304581;33;33972;-73
2022/11/19 09:58:48;;;;;;;2.15;1.85;;;;;;;8.32;60.97;98944.00;4304720;33;35080;-73
2022/11/19 10:01:17;;;;;;;1.87;1.77;;;;;;;8.71;58.49;98953.19;4304687;33;34394;-73
2022/11/19 10:03:48;;;;;;;3.53;3.22;;;;;;;8.77;58.74;98946.22;4304593;33;33867;-73
2022/11/19 10:06:38;;;;;;;7.50;2.55;;;;;;;7.69;61.72;98941.81;4291725;33;32722;-73
2022/11/19 10:09:10;;;;;;;2.03;1.83;;;;;;;7.28;62.88;98941.16;4291479;33;33601;-73
2022/11/19 10:11:46;;;;;;;0.77;0.77;;;;;;;6.82;62.92;98930.94;4291050;33;33787;-73
2022/11/19 10:14:39;;;;;;;2.62;2.47;;;;;;;6.43;64.24;98922.38;4304577;33;33307;-73
2022/11/19 10:17:08;;;;;;;2.47;2.35;;;;;;;7.23;61.31;98922.19;4304448;33;34032;-73
2022/11/19 10:19:39;;;;;;;2.20;2.08;;;;;;;6.26;64.06;98924.97;4304467;33;35057;-73
2022/11/19 10:22:40;;;;;;;1.48;1.37;;;;;;;5.97;65.62;98931.00;4304480;33;35337;-73
2022/11/19 10:25:16;;;;;;;0.98;0.98;;;;;;;5.68;67.75;98920.56;4304395;33;33569;-72
2022/11/19 10:27:48;;;;;;;2.03;1.73;;;;;;;5.73;68.28;98923.16;4304846;33;33797;-73
2022/11/19 10:30:20;;;;;;;1.45;1.42;;;;;;;6.16;67.62;98924.13;4303248;33;35171;-73
2022/11/19 10:32:59;;;;;;;1.80;1.70;;;;;;;6.16;68.89;98916.38;4291457;33;34475;-73
2022/11/19 10:35:35;;;;;;;2.00;1.90;;;;;;;6.28;68.69;98917.22;4304330;33;33459;-74
2022/11/19 10:38:19;;;;;;;1.80;1.70;;;;;;;6.60;67.19;98915.47;4290983;33;34492;-74
2022/11/19 10:41:01;;;;;;;2.72;2.53;;;;;;;7.25;65.71;98922.19;4304090;33;35919;-73
2022/11/19 10:43:33;;;;;;;1.87;1.77;;;;;;;8.80;61.45;98928.03;4304219;33;35220;-74
2022/11/19 10:46:03;;;;;;;2.58;2.05;;;;;;;10.42;59.63;98918.94;4303168;33;34259;-74
2022/11/19 10:48:55;;;;;;;2.92;1.02;;;;;;;12.02;51.67;98907.94;4304071;33;34055;-74
2022/11/19 10:51:30;;;;;;;2.60;2.40;;;;;;;11.33;54.20;98917.22;4291129;33;36022;-74
2022/11/19 10:54:01;;;;;;;2.58;2.37;;;;;;;9.96;57.91;98912.69;4291431;33;34374;-74
2022/11/19 10:56:40;;;;;;;4.03;3.65;;;;;;;9.34;59.49;98917.91;4304088;33;34353;-74
2022/11/19 10:59:18;;;;;;;4.05;3.62;;;;;;;9.70;57.05;98930.44;4302962;33;34806;-74
2022/11/19 11:01:49;;;;;;;2.00;1.58;;;;;;;8.53;58.39;98933.47;4303994;33;35053;-74
2022/11/19 11:04:25;;;;;;;3.05;2.72;;;;;;;8.70;59.39;98937.62;4303944;33;35246;-74
2022/11/19 11:06:57;;;;;;;3.95;3.65;;;;;;;9.30;59.01;98931.81;4304066;33;33685;-74
2022/11/19 11:09:38;;;;;;;3.17;1.83;;;;;;;9.39;58.20;98930.81;4305143;33;33904;-74
2022/11/19 11:15:20;;;;;;;0.95;0.95;;;;;;;7.85;61.72;98948.63;4304789;33;34271;-74
2022/11/19 11:18:06;;;;;;;1.80;1.40;;;;;;;7.60;64.72;98960.88;4305784;33;33387;-74
2022/11/19 11:20:35;;;;;;;1.08;1.08;;;;;;;7.37;64.16;98956.66;4292837;33;33994;-74
2022/11/19 11:23:14;;;;;;;2.15;1.95;;;;;;;6.45;66.17;98956.87;4292540;33;34470;-74
2022/11/19 11:26:02;;;;;;;1.65;1.55;;;;;;;6.29;66.77;98961.19;4304618;33;35246;-74
2022/11/19 11:28:31;;;;;;;2.47;2.28;;;;;;;6.23;68.64;98962.03;4305581;33;33081;-74
2022/11/19 11:31:04;;;;;;;0.82;0.82;;;;;;;5.65;70.71;98973.09;4292673;33;33991;-73
2022/11/19 11:33:54;;;;;;;18.27;3.03;;;;;;;5.63;72.29;98966.19;4292638;33;35204;-73
2022/11/19 11:36:27;;;;;;;2.75;2.53;;;;;;;5.83;70.67;98972.28;4305775;33;34540;-74
2022/11/19 11:38:57;;;;;;;3.03;2.75;;;;;;;5.58;71.55;98965.34;4292808;33;33546;-74
2022/11/19 11:41:41;;;;;;;3.17;2.97;;;;;;;5.70;70.95;98957.63;4292232;33;34031;-74
2022/11/19 11:44:34;;;;;;;1.73;1.62;;;;;;;5.31;75.16;98954.00;4305625;33;34685;-74
2022/11/19 11:47:09;;;;;;;1.42;1.37;;;;;;;5.55;72.91;98960.16;4292611;33;34505;-74
2022/11/19 11:49:41;;;;;;;1.85;1.75;;;;;;;5.20;74.40;98953.97;4304484;33;33331;-74
2022/11/19 11:52:30;;;;;;;5.07;4.62;;;;;;;5.85;70.80;98957.63;4305545;33;34096;-74
2022/11/19 11:55:01;;;;;;;4.78;3.28;;;;;;;5.48;73.42;98946.34;4304363;33;34919;-74
2022/11/19 11:57:32;;;;;;;1.30;1.27;;;;;;;5.58;70.06;98952.41;4305468;33;34419;-74
2022/11/19 12:00:23;;;;;;;1.30;1.20;;;;;;;5.90;71.03;98957.66;4292743;33;34444;-74
2022/11/19 12:03:00;;;;;;;1.45;1.35;;;;;;;6.22;70.47;98949.97;4305419;33;34031;-74
2022/11/19 12:05:37;;;;;;;1.70;1.60;;;;;;;7.17;67.09;98945.53;4305413;33;35770;-73
2022/11/19 12:08:06;;;;;;;2.47;1.90;;;;;;;6.89;67.79;98939.56;4292280;33;34465;-74
2022/11/19 12:11:22;;;;;;;11.57;3.50;;;;;;;7.60;64.94;98937.56;4304304;33;33492;-74
2022/11/19 12:14:03;;;;;;;1.10;1.10;;;;;;;7.64;61.25;98931.50;4301837;33;34030;-74
2022/11/19 12:16:52;;;;;;;1.75;1.65;;;;;;;7.36;67.56;98936.81;4305313;33;35126;-74
2022/11/19 12:19:40;;;;;;;3.45;2.47;;;;;;;7.39;67.04;98928.16;4305061;33;34504;-74
2022/11/19 12:22:39;;;;;;;2.72;2.20;;;;;;;8.06;62.19;98921.72;4305185;33;33695;-74
2022/11/19 12:25:25;;;;;;;3.03;2.83;;;;;;;7.90;61.88;98922.69;4305322;33;34562;-74
2022/11/19 12:28:15;;;;;;;1.27;1.27;;;;;;;7.53;64.37;98921.19;4280511;33;34882;-74
2022/11/19 12:31:02;;;;;;;0.90;0.90;;;;;;;7.86;62.96;98911.50;4305223;33;35225;-73
2022/11/19 12:33:55;;;;;;;1.23;1.23;;;;;;;7.82;63.79;98921.88;4305355;33;34247;-74